This is the latest recevied weather packets stored in our database for station/object EA1FWM-13. If no packets are shown the sender has not sent any weather packets the latest 10 day(s).
| Time | Temp. | Humidity | Pressure | Rain* | Wind** | Luminosity | Snow |
|---|---|---|---|---|---|---|---|
| 1777374522 | 26.67° C | 49% | 1014.3 hPa | - | - | - | - |
| 1777373621 | 24.44° C | 55% | 1014.5 hPa | - | - | - | - |
| 1777372720 | 20° C | 63% | 1014.7 hPa | - | - | - | - |
| 1777371819 | 20° C | 66% | 1014.8 hPa | - | - | - | - |
| 1777370919 | 18.89° C | 69% | 1014.8 hPa | - | - | - | - |
| 1777370018 | 18.33° C | 70% | 1014.8 hPa | - | - | - | - |
| 1777369117 | 18.89° C | 70% | 1015 hPa | - | - | - | - |
| 1777368216 | 17.22° C | 74% | 1015 hPa | - | - | - | - |
| 1777367314 | 16.11° C | 76% | 1015.1 hPa | - | - | - | - |
| 1777366413 | 15.56° C | 79% | 1015.2 hPa | - | - | - | - |
| 1777365512 | 15° C | 81% | 1015.2 hPa | - | - | - | - |
| 1777364611 | 15° C | 81% | 1015.2 hPa | - | - | - | - |
| 1777363711 | 14.44° C | 82% | 1015.3 hPa | - | - | - | - |
| 1777362810 | 14.44° C | 81% | 1015.4 hPa | - | - | - | - |
| 1777361909 | 14.44° C | 82% | 1015.5 hPa | - | - | - | - |
| 1777361008 | 13.33° C | 84% | 1015.4 hPa | - | - | - | - |
| 1777360107 | 13.33° C | 85% | 1015.3 hPa | - | - | - | - |
| 1777359206 | 13.33° C | 85% | 1015.1 hPa | - | - | - | - |
| 1777358305 | 12.78° C | 87% | 1015.1 hPa | - | - | - | - |
| 1777357404 | 12.22° C | 89% | 1015.2 hPa | - | - | - | - |
| 1777356504 | 11.67° C | 91% | 1015.1 hPa | - | - | - | - |
| 1777355603 | 11.67° C | 92% | 1015.1 hPa | - | - | - | - |
| 1777354702 | 11.67° C | 92% | 1015 hPa | - | - | - | - |
| 1777353801 | 11.11° C | 92% | 1015 hPa | - | - | - | - |
| 1777352900 | 11.67° C | 91% | 1015.1 hPa | - | - | - | - |
* Rain since midnight (hover to see other rain measurements)
** Current wind speed in m/s (hover to see current wind gust speed)